Time;durP1;ratioP1;P1;durP2;ratioP2;P2;SDS_P1;SDS_P2;PMS_P1;PMS_P2;Temp;Humidity;BMP_temperature;BMP_pressure;BME280_temperature;BME280_humidity;BME280_pressure;Samples;Min_cycle;Max_cycle;Signal;HPM_P1;HPM_P2
2022/12/01 00:00:38;;;;;;;51.15;21.08;;;;;;;5.00;100.00;102313.34;5002574;28;20057;-75
2022/12/01 00:03:04;;;;;;;56.20;21.15;;;;;;;5.01;100.00;102317.56;4991523;28;20034;-75
2022/12/01 00:05:29;;;;;;;50.08;20.13;;;;;;;5.06;100.00;102310.44;4972689;28;20041;-75
2022/12/01 00:07:56;;;;;;;46.67;19.15;;;;;;;5.05;100.00;102306.22;4983866;28;20030;-75
2022/12/01 00:10:25;;;;;;;46.38;18.67;;;;;;;5.04;100.00;102309.69;4982902;28;20033;-75
2022/12/01 00:12:58;;;;;;;45.10;18.33;;;;;;;4.98;100.00;102310.84;5002222;28;20038;-75
2022/12/01 00:15:30;;;;;;;45.28;17.98;;;;;;;4.99;100.00;102298.81;4980222;28;20682;-75
2022/12/01 00:17:57;;;;;;;49.88;19.63;;;;;;;4.99;100.00;102298.81;4996933;28;20141;-75
2022/12/01 00:20:23;;;;;;;55.83;20.85;;;;;;;5.04;100.00;102292.50;4984175;28;20022;-75
2022/12/01 00:22:49;;;;;;;56.15;19.67;;;;;;;5.04;100.00;102300.22;4987776;28;20055;-75
2022/12/01 00:25:16;;;;;;;49.38;19.75;;;;;;;4.98;100.00;102298.00;4999023;28;20649;-75
2022/12/01 00:27:42;;;;;;;53.92;20.35;;;;;;;5.00;100.00;102300.47;4970380;28;20049;-75
2022/12/01 00:30:10;;;;;;;62.78;23.88;;;;;;;4.97;100.00;102303.22;5000881;28;20065;-75
2022/12/01 00:32:36;;;;;;;57.03;20.70;;;;;;;4.94;100.00;102303.41;4986115;28;20100;-75
2022/12/01 00:35:03;;;;;;;56.70;21.70;;;;;;;4.95;100.00;102294.75;4987497;28;20124;-75
2022/12/01 00:37:30;;;;;;;58.83;20.77;;;;;;;4.91;100.00;102298.41;5006820;28;20050;-75
2022/12/01 00:39:56;;;;;;;63.97;22.60;;;;;;;4.92;100.00;102302.66;5006207;28;20030;-75
2022/12/01 00:42:22;;;;;;;61.28;22.88;;;;;;;4.95;100.00;102305.03;4983810;28;20429;-75
2022/12/01 00:44:47;;;;;;;55.75;21.45;;;;;;;4.95;100.00;102294.75;4985070;28;20034;-75
2022/12/01 00:47:13;;;;;;;60.60;21.83;;;;;;;5.05;100.00;102303.66;4998496;28;20042;-75
2022/12/01 00:50:04;;;;;;;60.83;23.23;;;;;;;5.13;100.00;102296.34;4992312;28;20036;-75
2022/12/01 00:52:55;;;;;;;66.25;23.70;;;;;;;5.11;100.00;102298.16;4999425;28;20395;-75
2022/12/01 00:55:46;;;;;;;70.07;23.98;;;;;;;4.98;100.00;102294.59;4989654;28;20138;-75
2022/12/01 00:58:36;;;;;;;66.53;24.52;;;;;;;4.96;100.00;102294.69;5006792;28;20078;-75
2022/12/01 01:01:26;;;;;;;68.20;24.20;;;;;;;4.93;100.00;102307.69;4999198;28;20142;-75
2022/12/01 01:04:18;;;;;;;84.13;25.85;;;;;;;4.99;100.00;102309.09;5004900;28;20101;-75
2022/12/01 01:07:08;;;;;;;74.45;26.00;;;;;;;5.01;100.00;102307.28;5005929;28;20049;-75
2022/12/01 01:09:58;;;;;;;82.60;27.35;;;;;;;4.95;100.00;102302.47;4987342;28;20212;-75
2022/12/01 01:12:49;;;;;;;86.13;27.60;;;;;;;4.96;100.00;102304.97;4991354;28;20101;-75
2022/12/01 01:15:40;;;;;;;88.45;30.13;;;;;;;4.93;100.00;102312.00;4998051;28;20135;-75
2022/12/01 01:18:32;;;;;;;83.45;27.38;;;;;;;4.98;100.00;102315.16;5001594;28;20041;-75
2022/12/01 01:21:25;;;;;;;80.80;30.53;;;;;;;4.93;100.00;102306.88;5002593;28;20053;-75
2022/12/01 01:24:16;;;;;;;93.50;30.77;;;;;;;4.87;100.00;102310.59;4989300;28;20033;-75
2022/12/01 01:27:07;;;;;;;96.32;31.83;;;;;;;4.88;100.00;102313.09;5001858;28;20045;-75
2022/12/01 01:29:58;;;;;;;93.25;29.80;;;;;;;4.99;100.00;102319.38;4998018;28;20072;-75
2022/12/01 01:32:48;;;;;;;102.30;31.40;;;;;;;4.94;100.00;102321.38;5001698;28;20053;-75
2022/12/01 01:35:39;;;;;;;94.07;30.38;;;;;;;4.88;100.00;102327.69;5003197;28;20689;-75
2022/12/01 01:38:30;;;;;;;92.80;31.80;;;;;;;4.87;100.00;102326.84;4998903;28;20394;-75
2022/12/01 01:41:21;;;;;;;100.10;34.42;;;;;;;4.89;100.00;102331.91;4990944;28;20123;-75
2022/12/01 01:44:48;;;;;;;97.13;31.92;;;;;;;4.83;100.00;102335.63;4988581;28;20554;-75
2022/12/01 01:47:39;;;;;;;105.65;32.90;;;;;;;4.83;100.00;102330.47;4981934;28;20093;-75
2022/12/01 01:50:31;;;;;;;101.25;32.63;;;;;;;4.86;100.00;102332.91;5000891;28;20184;-75
2022/12/01 01:53:22;;;;;;;101.68;31.95;;;;;;;4.78;100.00;102327.31;5000987;28;20083;-75
2022/12/01 01:56:12;;;;;;;101.82;31.38;;;;;;;4.84;100.00;102334.72;4987389;28;20057;-75
2022/12/01 01:59:03;;;;;;;91.45;31.42;;;;;;;4.82;100.00;102336.56;4998625;28;20404;-75
2022/12/01 02:02:06;;;;;;;99.60;31.88;;;;;;;4.78;100.00;102335.03;4992491;28;20138;-75
2022/12/01 02:05:01;;;;;;;94.85;30.73;;;;;;;4.80;100.00;102334.97;5000694;28;20040;-75
2022/12/01 02:07:54;;;;;;;97.57;31.90;;;;;;;4.81;100.00;102339.19;5025760;22;21126;-79
2022/12/01 02:11:09;;;;;;;114.82;33.28;;;;;;;4.87;100.00;102342.25;4990723;28;20061;-78
2022/12/01 02:14:07;;;;;;;;;;;;;;;4.85;100.00;102341.50;4977586;28;20290;-78
2022/12/01 02:17:09;;;;;;;120.72;34.25;;;;;;;4.89;100.00;102339.63;4988156;28;19925;-78
2022/12/01 02:20:30;;;;;;;109.25;32.33;;;;;;;4.82;100.00;102340.84;4998164;23;20082;-74
2022/12/01 02:23:30;;;;;;;102.35;32.83;;;;;;;4.79;100.00;102336.72;5021573;28;20068;-75
2022/12/01 02:26:35;;;;;;;107.47;33.92;;;;;;;4.81;100.00;102334.88;5026677;28;20450;-74
2022/12/01 02:29:50;;;;;;;108.55;32.65;;;;;;;4.79;100.00;102334.13;5007009;28;20028;-74
2022/12/01 02:33:05;;;;;;;106.53;31.90;;;;;;;4.87;100.00;102331.97;5022213;28;20553;-75
2022/12/01 02:36:10;;;;;;;120.40;36.05;;;;;;;4.87;100.00;102331.16;5007915;28;20052;-74
2022/12/01 02:39:27;;;;;;;119.63;33.58;;;;;;;4.86;100.00;102332.91;5022386;28;20391;-75
2022/12/01 02:42:52;;;;;;;131.52;35.08;;;;;;;4.74;100.00;102336.09;5022795;28;20052;-75
2022/12/01 02:46:03;;;;;;;116.57;32.72;;;;;;;4.70;100.00;102326.09;5019087;28;20131;-74
2022/12/01 02:48:59;;;;;;;111.03;31.17;;;;;;;4.70;100.00;102338.94;5021769;28;20055;-74
2022/12/01 02:51:51;;;;;;;118.72;33.67;;;;;;;4.70;100.00;102338.94;5020336;28;20072;-74
2022/12/01 02:54:43;;;;;;;119.45;33.47;;;;;;;4.77;100.00;102333.38;5020424;28;20072;-74
2022/12/01 02:57:34;;;;;;;120.97;34.80;;;;;;;4.75;100.00;102334.38;5024967;28;20057;-75
2022/12/01 03:00:25;;;;;;;116.80;35.47;;;;;;;4.75;100.00;102336.97;5024025;28;20033;-75
2022/12/01 03:03:37;;;;;;;118.03;34.25;;;;;;;4.76;100.00;102336.84;5006724;28;20124;-74
2022/12/01 03:06:36;;;;;;;122.63;34.85;;;;;;;4.78;100.00;102337.59;5020003;28;20112;-74
2022/12/01 03:09:38;;;;;;;128.73;36.75;;;;;;;4.74;100.00;102333.53;5023463;28;20033;-75
2022/12/01 03:12:58;;;;;;;100.10;31.02;;;;;;;4.74;100.00;102325.00;5019853;28;20048;-74
2022/12/01 03:16:08;;;;;;;127.07;36.22;;;;;;;4.77;100.00;102330.81;4966412;28;20048;-75
2022/12/01 03:19:16;;;;;;;117.30;34.88;;;;;;;4.76;100.00;102333.47;5009017;28;20039;-75
2022/12/01 03:22:14;;;;;;;124.25;37.47;;;;;;;4.73;100.00;102329.31;5024724;28;20136;-75
2022/12/01 03:25:08;;;;;;;126.97;36.53;;;;;;;4.76;100.00;102331.72;5011412;28;20149;-74
2022/12/01 03:28:00;;;;;;;101.40;34.33;;;;;;;4.77;100.00;102330.00;5022892;28;20098;-75
2022/12/01 03:30:57;;;;;;;125.15;35.83;;;;;;;4.79;100.00;102336.72;5028331;28;20056;-75
2022/12/01 03:33:59;;;;;;;115.30;34.65;;;;;;;4.78;100.00;102329.88;5022959;28;20155;-75
2022/12/01 03:36:55;;;;;;;141.70;40.00;;;;;;;4.77;100.00;102332.56;5011540;28;20083;-74
2022/12/01 03:39:48;;;;;;;118.82;33.88;;;;;;;4.76;100.00;102331.72;5012454;28;20036;-75
2022/12/01 03:42:45;;;;;;;135.52;38.80;;;;;;;4.79;100.00;102336.72;5026218;28;20045;-75
2022/12/01 03:45:47;;;;;;;136.48;39.58;;;;;;;4.79;100.00;102341.84;5022984;28;20545;-75
2022/12/01 03:48:39;;;;;;;131.23;37.13;;;;;;;4.79;100.00;102343.59;5020028;28;20052;-74
2022/12/01 03:51:42;;;;;;;122.22;34.60;;;;;;;4.79;100.00;102347.00;5010685;28;20036;-75
2022/12/01 03:55:04;;;;;;;118.22;37.00;;;;;;;4.90;100.00;102345.56;5026631;28;20104;-75
2022/12/01 03:58:04;;;;;;;126.68;32.60;;;;;;;4.82;100.00;102343.41;5021322;28;20091;-74
2022/12/01 04:00:56;;;;;;;106.30;33.95;;;;;;;4.80;100.00;102346.09;5019838;28;20056;-75
2022/12/01 04:03:46;;;;;;;140.90;38.53;;;;;;;4.83;100.00;102339.94;5012332;28;20463;-74
2022/12/01 04:06:41;;;;;;;141.63;36.72;;;;;;;4.79;100.00;102341.03;5024982;28;20107;-75
2022/12/01 04:09:31;;;;;;;123.20;33.35;;;;;;;4.83;100.00;102345.09;5019122;28;20087;-74
2022/12/01 04:12:28;;;;;;;122.55;34.55;;;;;;;4.83;100.00;102345.91;5005703;28;20574;-74
2022/12/01 04:15:19;;;;;;;115.72;34.97;;;;;;;4.77;100.00;102341.09;5009680;28;20136;-74
2022/12/01 04:18:09;;;;;;;107.38;33.72;;;;;;;4.79;100.00;102348.72;5017173;28;20052;-75
2022/12/01 04:21:00;;;;;;;91.88;30.27;;;;;;;4.82;100.00;102340.84;5025011;28;20108;-74
2022/12/01 04:24:00;;;;;;;105.32;31.55;;;;;;;4.83;100.00;102340.75;5022313;28;20100;-74
2022/12/01 04:26:50;;;;;;;95.32;31.13;;;;;;;4.80;100.00;102343.53;5021748;28;20641;-74
2022/12/01 04:29:41;;;;;;;105.10;33.60;;;;;;;4.96;100.00;102342.69;5023384;28;20497;-75
2022/12/01 04:32:37;;;;;;;96.35;34.60;;;;;;;4.80;100.00;102340.94;5016863;28;20111;-74
2022/12/01 04:35:27;;;;;;;95.55;32.55;;;;;;;4.80;100.00;102340.09;5018630;28;20054;-75
2022/12/01 04:38:18;;;;;;;91.18;31.35;;;;;;;4.80;100.00;102335.81;5023251;28;20045;-74
2022/12/01 04:41:11;;;;;;;89.25;29.92;;;;;;;4.76;100.00;102341.16;5009595;28;20056;-75
2022/12/01 04:44:01;;;;;;;94.45;30.58;;;;;;;4.80;100.00;102335.81;5024620;28;20435;-74
2022/12/01 04:46:52;;;;;;;85.47;30.67;;;;;;;4.80;100.00;102330.66;5009294;28;20596;-74
2022/12/01 04:49:43;;;;;;;81.72;27.92;;;;;;;4.75;100.00;102332.63;5022937;28;20076;-74
2022/12/01 04:52:36;;;;;;;88.38;28.98;;;;;;;4.76;100.00;102326.56;5023355;28;20076;-74
2022/12/01 04:55:26;;;;;;;83.80;30.50;;;;;;;4.76;100.00;102328.31;5009144;28;20638;-74
2022/12/01 04:58:17;;;;;;;94.25;28.95;;;;;;;4.75;100.00;102324.94;5010313;28;20630;-74
2022/12/01 05:01:14;;;;;;;95.20;29.77;;;;;;;4.79;100.00;102323.84;5022619;28;20063;-74
2022/12/01 05:04:05;;;;;;;93.47;30.13;;;;;;;4.80;100.00;102333.25;5003516;28;20125;-74
2022/12/01 05:06:55;;;;;;;101.18;30.33;;;;;;;4.80;100.00;102328.09;5016621;28;20044;-74
2022/12/01 05:09:46;;;;;;;92.45;28.08;;;;;;;4.86;100.00;102320.06;5021013;28;20095;-74
2022/12/01 05:12:38;;;;;;;88.03;25.92;;;;;;;4.79;100.00;102321.28;5023115;28;20103;-75
2022/12/01 05:15:31;;;;;;;72.70;24.23;;;;;;;4.74;100.00;102325.00;5024693;28;20047;-74
2022/12/01 05:18:21;;;;;;;81.00;25.52;;;;;;;4.71;100.00;102331.16;5022120;28;20086;-74
2022/12/01 05:21:12;;;;;;;78.28;24.38;;;;;;;4.71;100.00;102327.72;5017750;28;20100;-74
2022/12/01 05:24:04;;;;;;;80.40;26.70;;;;;;;4.66;100.00;102331.38;5019816;28;20156;-75
2022/12/01 05:26:55;;;;;;;78.22;23.27;;;;;;;4.71;100.00;102330.28;5022052;28;20616;-75
2022/12/01 05:29:46;;;;;;;76.07;23.30;;;;;;;4.78;100.00;102335.03;5025193;28;20048;-74
2022/12/01 05:32:37;;;;;;;81.22;26.02;;;;;;;4.70;100.00;102329.47;5006170;28;20044;-75
2022/12/01 05:35:27;;;;;;;76.60;25.33;;;;;;;4.73;100.00;102329.31;5016993;28;20072;-74
2022/12/01 05:38:19;;;;;;;74.65;25.90;;;;;;;4.68;100.00;102337.25;5008992;28;20087;-74
2022/12/01 05:41:09;;;;;;;72.05;25.13;;;;;;;4.73;100.00;102339.59;5011569;28;20048;-74
2022/12/01 05:44:00;;;;;;;80.18;24.65;;;;;;;4.77;100.00;102346.25;5022073;28;20214;-75
2022/12/01 05:46:51;;;;;;;100.60;25.73;;;;;;;4.68;100.00;102339.81;5021608;28;20145;-74
2022/12/01 05:49:42;;;;;;;86.88;24.45;;;;;;;4.72;100.00;102343.06;5018027;28;20141;-74
2022/12/01 05:52:34;;;;;;;84.30;26.23;;;;;;;4.72;100.00;102339.69;5005985;28;20571;-74
2022/12/01 05:55:24;;;;;;;90.50;27.00;;;;;;;4.67;100.00;102342.47;5008763;28;20047;-74
2022/12/01 05:58:15;;;;;;;88.50;27.98;;;;;;;4.58;100.00;102354.06;5011907;28;20032;-74
2022/12/01 06:01:06;;;;;;;87.40;27.73;;;;;;;4.68;100.00;102351.84;4999163;28;20056;-74
2022/12/01 06:03:58;;;;;;;80.03;25.77;;;;;;;4.66;100.00;102353.69;5024293;28;20056;-74
2022/12/01 06:06:48;;;;;;;80.63;23.55;;;;;;;4.69;100.00;102366.38;5008831;28;20526;-74
2022/12/01 06:09:39;;;;;;;75.63;25.40;;;;;;;4.64;100.00;102364.03;5020373;28;20113;-74
2022/12/01 06:12:30;;;;;;;94.80;29.17;;;;;;;4.62;100.00;102354.75;5023509;28;20702;-75
2022/12/01 06:15:21;;;;;;;83.05;26.83;;;;;;;4.60;100.00;102362.53;5005608;28;20439;-75
2022/12/01 06:18:12;;;;;;;85.35;27.83;;;;;;;4.62;100.00;102362.47;5004587;28;20060;-75
2022/12/01 06:21:05;;;;;;;83.57;24.05;;;;;;;4.57;100.00;102362.69;5017633;28;20060;-75
2022/12/01 06:23:55;;;;;;;74.45;25.25;;;;;;;4.65;100.00;102372.56;5026002;28;20098;-74
2022/12/01 06:26:46;;;;;;;95.28;27.42;;;;;;;4.67;100.00;102370.75;5009452;28;20049;-74
2022/12/01 06:29:37;;;;;;;90.15;23.02;;;;;;;4.65;100.00;102362.28;5023514;28;20044;-75
2022/12/01 06:32:28;;;;;;;81.88;25.15;;;;;;;4.66;100.00;102374.22;5006978;28;20052;-74
2022/12/01 06:35:18;;;;;;;81.10;25.05;;;;;;;4.60;100.00;102364.28;5018552;28;20586;-74
2022/12/01 06:38:08;;;;;;;82.53;25.92;;;;;;;4.57;100.00;102357.53;5022272;28;20654;-75
2022/12/01 06:40:58;;;;;;;66.50;22.30;;;;;;;4.55;100.00;102363.69;5018990;28;20041;-75
2022/12/01 06:43:49;;;;;;;78.43;25.13;;;;;;;4.58;100.00;102364.34;5025743;28;20064;-74
2022/12/01 06:46:39;;;;;;;84.40;24.55;;;;;;;4.51;100.00;102364.75;5006905;28;20056;-74
2022/12/01 06:49:30;;;;;;;78.55;25.85;;;;;;;4.59;100.00;102368.56;5002741;28;20032;-74
2022/12/01 06:52:21;;;;;;;75.18;23.42;;;;;;;4.58;100.00;102372.06;5007213;28;20092;-74
2022/12/01 06:55:12;;;;;;;68.47;23.38;;;;;;;4.55;100.00;102381.66;5002949;28;20076;-75
2022/12/01 06:58:04;;;;;;;76.95;24.85;;;;;;;4.56;100.00;102380.72;5025659;28;20060;-74
2022/12/01 07:00:54;;;;;;;71.40;23.92;;;;;;;4.54;100.00;102380.84;5024053;28;20056;-74
2022/12/01 07:03:48;;;;;;;73.30;24.52;;;;;;;4.54;100.00;102378.28;5015282;28;20191;-74
2022/12/01 07:06:39;;;;;;;66.30;23.38;;;;;;;4.55;100.00;102377.34;5025286;28;20541;-75
2022/12/01 07:09:30;;;;;;;66.43;23.40;;;;;;;4.60;100.00;102387.41;5022100;28;20044;-75
2022/12/01 07:12:21;;;;;;;62.08;22.55;;;;;;;4.64;100.00;102389.72;5008284;28;20376;-75
2022/12/01 07:15:13;;;;;;;73.65;23.30;;;;;;;4.60;100.00;102388.22;5021377;28;20040;-74
2022/12/01 07:18:03;;;;;;;70.60;24.45;;;;;;;4.71;100.00;102381.69;5011718;28;20032;-75
2022/12/01 07:21:06;;;;;;;67.03;22.73;;;;;;;4.60;100.00;102388.22;5017212;28;20133;-75
2022/12/01 07:23:57;;;;;;;62.40;20.02;;;;;;;4.61;100.00;102383.91;5025931;28;20056;-74
2022/12/01 07:26:48;;;;;;;61.28;21.13;;;;;;;4.63;100.00;102385.50;5023646;28;20055;-74
2022/12/01 07:29:38;;;;;;;67.38;21.60;;;;;;;4.60;100.00;102392.53;5022018;28;20031;-74
2022/12/01 07:32:29;;;;;;;62.75;21.83;;;;;;;4.59;100.00;102393.44;5016619;28;20057;-74
2022/12/01 07:35:20;;;;;;;60.67;21.15;;;;;;;4.65;100.00;102388.84;5024555;28;20266;-74
2022/12/01 07:38:11;;;;;;;59.72;20.10;;;;;;;4.60;100.00;102395.94;5011516;28;20125;-74
2022/12/01 07:41:02;;;;;;;65.53;21.15;;;;;;;4.69;100.00;102389.50;5025624;28;20519;-74
2022/12/01 07:43:54;;;;;;;65.05;21.02;;;;;;;4.65;100.00;102395.69;5023476;28;20133;-74
2022/12/01 07:46:44;;;;;;;69.05;21.30;;;;;;;4.70;100.00;102400.59;5008931;28;20553;-74
2022/12/01 07:49:36;;;;;;;116.63;40.72;;;;;;;4.72;100.00;102393.66;5008874;28;20135;-74
2022/12/01 07:52:27;;;;;;;67.15;21.77;;;;;;;4.67;100.00;102399.84;5011501;28;20209;-74
2022/12/01 07:55:18;;;;;;;68.55;20.48;;;;;;;4.71;100.00;102408.25;5024072;28;20056;-75
2022/12/01 07:58:09;;;;;;;71.63;21.52;;;;;;;4.68;100.00;102400.69;5022221;28;20188;-75
2022/12/01 08:01:08;;;;;;;74.75;23.25;;;;;;;4.78;100.00;102404.44;5017815;28;20611;-75
2022/12/01 08:04:48;;;;;;;85.18;23.33;;;;;;;4.69;100.00;102394.66;5011804;28;20098;-74
2022/12/01 08:08:29;;;;;;;75.35;22.33;;;;;;;4.73;100.00;102401.28;5031219;23;20462;-73
2022/12/01 08:12:10;;;;;;;73.82;23.27;;;;;;;4.66;100.00;102403.31;5038249;28;20063;-73
2022/12/01 08:15:51;;;;;;;77.03;23.88;;;;;;;4.74;100.00;102407.25;5040861;28;20025;-74
2022/12/01 08:19:31;;;;;;;77.88;23.40;;;;;;;4.72;100.00;102409.06;5040440;28;20048;-72
2022/12/01 08:23:12;;;;;;;86.32;25.30;;;;;;;4.74;100.00;102412.38;5028377;28;20552;-73
2022/12/01 08:26:53;;;;;;;71.75;22.85;;;;;;;4.73;100.00;102411.56;5038085;28;20065;-73
2022/12/01 08:30:34;;;;;;;81.40;23.90;;;;;;;4.73;100.00;102413.28;5038926;28;20125;-73
2022/12/01 08:34:15;;;;;;;104.95;40.47;;;;;;;4.76;100.00;102418.28;5026640;28;20095;-73
2022/12/01 10:06:31;;;;;;;104.72;36.03;;;;;;;4.91;100.00;102425.19;5030934;28;20048;-72
2022/12/01 10:09:04;;;;;;;116.43;37.15;;;;;;;4.92;100.00;102424.28;5013174;28;20036;-72
2022/12/01 10:11:34;;;;;;;104.43;34.40;;;;;;;4.96;100.00;102412.13;4997695;28;20076;-73
2022/12/01 10:14:00;;;;;;;106.85;32.75;;;;;;;4.97;100.00;102419.75;5017666;28;20060;-72
2022/12/01 10:16:32;;;;;;;114.30;35.25;;;;;;;4.97;100.00;102418.91;5035823;28;20037;-71
2022/12/01 10:19:31;;;;;;;94.97;30.88;;;;;;;5.01;100.00;102416.09;5015865;28;20032;-72
2022/12/01 10:22:15;;;;;;;100.78;32.58;;;;;;;4.97;100.00;102417.19;4986810;28;20054;-73
2022/12/01 10:25:15;;;;;;;92.53;30.23;;;;;;;5.01;100.00;102421.25;5036308;28;20029;-73
2022/12/01 10:27:59;;;;;;;105.78;35.25;;;;;;;4.98;100.00;102421.41;5038160;28;20041;-72
2022/12/01 10:30:25;;;;;;;114.80;33.08;;;;;;;4.95;100.00;102416.41;5018634;28;20060;-72
2022/12/01 10:32:53;;;;;;;108.15;33.28;;;;;;;4.96;100.00;102414.69;5006272;28;20161;-72
2022/12/01 10:35:23;;;;;;;107.43;33.30;;;;;;;4.92;100.00;102414.00;5033593;28;20048;-73
2022/12/01 10:38:00;;;;;;;114.10;35.40;;;;;;;4.98;100.00;102407.72;5015361;28;20140;-71
2022/12/01 10:40:26;;;;;;;118.15;36.05;;;;;;;5.02;100.00;102406.66;5034292;28;20527;-73
2022/12/01 10:42:53;;;;;;;101.85;33.83;;;;;;;5.02;100.00;102409.22;5037934;28;20040;-73
2022/12/01 10:45:32;;;;;;;107.22;34.22;;;;;;;4.95;100.00;102406.13;5023084;28;20183;-72
2022/12/01 10:48:17;;;;;;;107.13;34.72;;;;;;;4.97;100.00;102406.91;5040044;28;20029;-71
2022/12/01 10:50:44;;;;;;;116.65;36.08;;;;;;;5.01;100.00;102404.97;5018093;28;20131;-72
2022/12/01 10:53:39;;;;;;;98.85;33.85;;;;;;;4.96;100.00;102399.25;5023754;28;20029;-72
2022/12/01 10:56:19;;;;;;;108.25;33.97;;;;;;;5.03;100.00;102403.19;5003906;28;20045;-72
2022/12/01 10:58:54;;;;;;;107.85;35.50;;;;;;;5.01;100.00;102399.81;5038625;28;20406;-73
2022/12/01 11:01:35;;;;;;;113.13;37.03;;;;;;;5.01;100.00;102399.81;5035367;28;20041;-73
2022/12/01 11:04:17;;;;;;;96.05;33.65;;;;;;;4.99;100.00;102405.06;5036736;28;20124;-72
2022/12/01 11:06:48;;;;;;;108.75;33.05;;;;;;;4.98;100.00;102405.97;5021617;28;20053;-71
2022/12/01 11:09:26;;;;;;;112.28;35.78;;;;;;;5.03;100.00;102396.28;5018686;28;20058;-73
2022/12/01 11:11:56;;;;;;;110.22;34.22;;;;;;;5.03;100.00;102398.84;5035608;28;20041;-71
2022/12/01 11:14:42;;;;;;;103.45;34.60;;;;;;;5.04;100.00;102403.06;5033734;28;20713;-73
2022/12/01 11:17:25;;;;;;;95.95;32.78;;;;;;;5.08;100.00;102396.03;5039258;28;20041;-73
2022/12/01 11:19:54;;;;;;;100.82;33.30;;;;;;;5.07;100.00;102400.34;5025706;28;20036;-72
2022/12/01 11:22:28;;;;;;;102.70;34.67;;;;;;;5.07;100.00;102394.38;5018957;28;20080;-72
2022/12/01 11:25:19;;;;;;;99.28;33.22;;;;;;;5.05;100.00;102393.63;5038681;28;20415;-72
2022/12/01 11:27:49;;;;;;;105.15;37.00;;;;;;;5.04;100.00;102391.97;5034066;28;20115;-73
2022/12/01 11:30:28;;;;;;;97.20;36.50;;;;;;;5.00;100.00;102382.75;5034248;28;20029;-73
2022/12/01 11:33:03;;;;;;;94.45;35.28;;;;;;;5.03;100.00;102385.19;5017398;28;20192;-72
2022/12/01 11:35:36;;;;;;;97.80;32.80;;;;;;;5.05;100.00;102380.78;5020368;28;20038;-72
2022/12/01 11:38:05;;;;;;;96.53;33.80;;;;;;;5.06;100.00;102377.28;5018808;28;20554;-71
2022/12/01 11:40:37;;;;;;;88.05;33.45;;;;;;;5.10;100.00;102386.50;5019726;28;20786;-72
2022/12/01 11:43:05;;;;;;;101.32;32.80;;;;;;;5.15;100.00;102386.25;5031615;28;20057;-72
2022/12/01 11:45:40;;;;;;;86.40;33.67;;;;;;;5.10;100.00;102388.25;5041285;28;20433;-72
2022/12/01 11:48:24;;;;;;;87.88;33.50;;;;;;;5.08;100.00;102385.75;5040570;28;20367;-75
2022/12/01 11:51:03;;;;;;;93.55;34.53;;;;;;;5.10;100.00;102380.53;5029088;28;20048;-75
2022/12/01 11:53:33;;;;;;;96.75;32.33;;;;;;;5.10;100.00;102386.50;5007379;28;20037;-74
2022/12/01 11:56:14;;;;;;;93.40;34.33;;;;;;;5.08;100.00;102388.31;5043237;28;20110;-74
2022/12/01 11:58:41;;;;;;;89.28;31.33;;;;;;;5.07;100.00;102382.34;5027625;28;20398;-74
2022/12/01 12:01:34;;;;;;;95.18;34.50;;;;;;;5.01;100.00;102379.25;5027109;28;20063;-74
2022/12/01 12:04:12;;;;;;;97.55;34.15;;;;;;;5.04;100.00;102381.69;5016591;28;20323;-74
2022/12/01 12:06:47;;;;;;;93.88;35.10;;;;;;;5.07;100.00;102381.53;5044485;28;20037;-74
2022/12/01 12:09:40;;;;;;;83.75;32.13;;;;;;;5.11;100.00;102379.63;5042841;28;20047;-75
2022/12/01 12:12:08;;;;;;;;;;;;;;;5.08;100.00;102378.03;5043841;28;20037;-74
2022/12/01 12:14:45;;;;;;;88.82;34.55;;;;;;;5.09;100.00;102368.59;5037907;28;19913;-74
2022/12/01 12:17:43;;;;;;;92.75;39.45;;;;;;;5.07;100.00;102372.06;5039786;28;20487;-74
2022/12/01 12:20:26;;;;;;;109.80;43.35;;;;;;;5.03;100.00;102364.63;5041642;28;20119;-74
2022/12/01 12:22:52;;;;;;;98.05;38.92;;;;;;;5.00;100.00;102367.34;5022530;28;20076;-74
2022/12/01 12:25:21;;;;;;;96.57;36.08;;;;;;;5.04;100.00;102361.09;5017311;28;20116;-74
2022/12/01 12:27:56;;;;;;;98.07;37.20;;;;;;;5.04;100.00;102366.25;5044525;28;20033;-75
2022/12/01 12:30:33;;;;;;;101.05;35.67;;;;;;;5.02;100.00;102370.66;5032731;28;20036;-74
2022/12/01 12:33:18;;;;;;;94.22;37.05;;;;;;;4.95;100.00;102364.16;5025744;28;20029;-75
2022/12/01 12:36:13;;;;;;;95.95;35.65;;;;;;;4.93;100.00;102363.41;5023913;28;20038;-74
2022/12/01 12:39:01;;;;;;;101.25;36.90;;;;;;;4.94;100.00;102357.38;5008491;28;20053;-75
2022/12/01 12:41:42;;;;;;;94.88;37.53;;;;;;;4.99;100.00;102361.38;5018880;28;20045;-74
2022/12/01 12:44:10;;;;;;;87.15;34.25;;;;;;;4.96;100.00;102361.53;5039778;28;20039;-75
2022/12/01 12:47:03;;;;;;;101.70;38.58;;;;;;;5.00;100.00;102362.19;5024054;28;20049;-74
2022/12/01 12:49:47;;;;;;;89.10;37.70;;;;;;;4.98;100.00;102353.72;5039041;28;20099;-75
2022/12/01 12:52:18;;;;;;;97.30;36.25;;;;;;;5.00;100.00;102347.59;5034517;28;20052;-74
2022/12/01 12:54:56;;;;;;;92.00;37.38;;;;;;;5.02;100.00;102353.47;5040410;28;20029;-74
2022/12/01 12:57:31;;;;;;;84.28;33.17;;;;;;;5.07;100.00;102351.50;5021085;28;20075;-74
2022/12/01 13:00:02;;;;;;;120.28;49.13;;;;;;;5.09;100.00;102351.41;5009797;28;20033;-74
2022/12/01 13:02:41;;;;;;;85.30;35.72;;;;;;;5.23;100.00;102350.66;5019786;28;20135;-74
2022/12/01 13:05:22;;;;;;;83.90;33.35;;;;;;;5.14;100.00;102346.00;5020769;28;20454;-74
2022/12/01 13:07:55;;;;;;;86.35;33.08;;;;;;;5.09;100.00;102340.31;5037763;28;20079;-74
2022/12/01 13:10:38;;;;;;;;;;;;;;;5.06;100.00;102336.97;5023678;28;20498;-74
2022/12/01 13:13:40;;;;;;;89.75;36.15;;;;;;;5.18;100.00;102340.63;5038542;28;20456;-74
2022/12/01 13:16:12;;;;;;;84.63;34.58;;;;;;;5.17;100.00;102338.16;5021572;28;20411;-74
2022/12/01 13:18:47;;;;;;;89.72;36.58;;;;;;;5.15;100.00;102334.81;5023561;28;20033;-74
2022/12/01 13:21:19;;;;;;;77.18;33.55;;;;;;;5.28;100.00;102335.00;5023202;28;20155;-74
2022/12/01 13:23:46;;;;;;;81.07;34.75;;;;;;;5.21;100.00;102324.19;5023647;28;20065;-74
2022/12/01 13:26:12;;;;;;;83.20;33.60;;;;;;;5.21;100.00;102331.91;5025487;28;20790;-74
2022/12/01 13:28:47;;;;;;;80.45;33.72;;;;;;;5.22;100.00;102326.69;5023563;28;20029;-74
2022/12/01 13:31:15;;;;;;;77.15;31.55;;;;;;;5.23;100.00;102319.78;5037855;28;20044;-74
2022/12/01 13:33:54;;;;;;;74.75;32.72;;;;;;;5.23;100.00;102317.22;5023764;28;20060;-74
2022/12/01 13:36:21;;;;;;;69.60;31.02;;;;;;;5.26;100.00;102317.88;5023386;28;20542;-74
2022/12/01 13:38:57;;;;;;;75.85;29.58;;;;;;;5.28;100.00;102317.00;5040617;28;20029;-74
2022/12/01 13:41:31;;;;;;;73.03;29.27;;;;;;;5.30;100.00;102317.72;5024834;28;20509;-74
2022/12/01 13:43:59;;;;;;;70.45;30.60;;;;;;;5.24;100.00;102306.84;5037495;28;20094;-74
2022/12/01 13:46:29;;;;;;;76.65;31.77;;;;;;;5.42;100.00;102311.91;5005732;28;20530;-74
2022/12/01 13:48:57;;;;;;;71.55;32.22;;;;;;;5.30;100.00;102304.88;5038436;28;20079;-74
2022/12/01 13:51:25;;;;;;;70.68;32.33;;;;;;;5.27;100.00;102311.00;5024365;28;20560;-74
2022/12/01 13:54:01;;;;;;;69.97;30.48;;;;;;;5.30;100.00;102315.16;5005146;28;20090;-74
2022/12/01 13:56:57;;;;;;;70.07;31.45;;;;;;;5.32;100.00;102310.75;5037521;28;20080;-74
2022/12/01 14:00:19;;;;;;;69.70;31.30;;;;;;;5.33;100.00;102309.81;5040505;28;20036;-74
2022/12/01 14:02:45;;;;;;;79.13;32.22;;;;;;;5.31;100.00;102309.91;5005777;28;20489;-74
2022/12/01 14:05:38;;;;;;;83.25;32.25;;;;;;;5.33;100.00;102312.41;5024019;28;20064;-75
2022/12/01 14:08:19;;;;;;;81.47;32.97;;;;;;;5.32;100.00;102313.34;5040218;28;20087;-74
2022/12/01 14:11:04;;;;;;;75.57;31.38;;;;;;;5.32;100.00;102315.91;5037729;28;20038;-74